• Join FlightAware (Why Join?)
  • Login
  • US Flag 
09:18PM EST


 

Airport Tracker/Info


-or-


 

Live Flight TrackerFlight Track Log ✈ DAL1562 ✈ 14-Apr-2013 ✈ KPHL - KDTW

Flight Track Log - Related Links

Times and Time Zones

All times are in EDT time to prevent confusion due to time zone crossing. See the DAL1562 flight status page for this flight to view local times or setup timezone preferences in your user account.

Time Position Orientation Groundspeed Altitude Reporting Facility
EDT Latitude Longitude Course Direction KTS MPH feet Rate Location/Type
04:47PM 39.8667 -75.2667 242° Southwest 159 183 800  Level Philadelphia TRACON
04:48PM 39.8586 -75.2867 242° Southwest 154 177 1,300 1,380 Climbing FAA TRACON SMA TRACON (SMA)
04:48PM 39.8536 -75.3147 257° West 221 254 1,700 1,620 Climbing FAA TRACON SMA TRACON (SMA)
04:48PM 39.8489 -75.3372 255° West 232 267 2,400 3,060 Climbing FAA TRACON SMA TRACON (SMA)
04:49PM 39.8428 -75.3661 255° West 248 285 3,700 3,600 Climbing FAA TRACON SMA TRACON (SMA)
04:49PM 39.8356 -75.3997 254° West 251 289 4,900 3,720 Climbing FAA TRACON SMA TRACON (SMA)
04:49PM 39.8303 -75.4244 254° West 254 292 6,200 3,900 Climbing FAA TRACON SMA TRACON (SMA)
04:50PM 39.8225 -75.4525 250° West 236 272 7,500 3,360 Climbing FAA TRACON SMA TRACON (SMA)
04:50PM 39.8222 -75.4836 269° West 233 268 8,500 2,100 Climbing FAA TRACON SMA TRACON (SMA)
04:50PM 39.8281 -75.5050 290° West 227 261 8,900 900 Climbing FAA TRACON SMA TRACON (SMA)
04:51PM 39.8403 -75.5275 305° West 232 267 9,100 1,500 Climbing FAA TRACON SMA TRACON (SMA)
04:51PM 39.8556 -75.5550 306° West 236 272 9,900 2,220 Climbing FAA TRACON SMA TRACON (SMA)
04:51PM 39.8658 -75.5753 303° West 238 274 10,600 1,680 Climbing FAA TRACON SMA TRACON (SMA)
04:52PM 39.8794 -75.6014 304° West 255 293 11,000 1,020 Climbing FAA TRACON SMA TRACON (SMA)
04:52PM 39.8939 -75.6292 304° West 297 342 11,300 1,140 Climbing FAA TRACON SMA TRACON (SMA)
04:52PM 39.9119 -75.6644 304° West 320 368 11,800 1,320 Climbing FAA TRACON SMA TRACON (SMA)
04:53PM 39.9189 -75.7033 283° West 340 391 12,200 1,620 Climbing FAA TRACON SMA TRACON (SMA)
04:53PM 39.9172 -75.7425 267° West 351 404 12,900 2,460 Climbing FAA TRACON SMA TRACON (SMA)
04:53PM 39.9147 -75.7911 266° West 357 411 13,900 2,280 Climbing FAA TRACON SMA TRACON (SMA)
04:54PM 39.9136 -75.8328 268° West 360 414 14,500 1,980 Climbing FAA TRACON SMA TRACON (SMA)
04:54PM 39.9114 -75.8825 267° West 366 421 15,300 2,700 Climbing FAA TRACON SMA TRACON (SMA)
04:54PM 39.9119 -75.9236 271° West 371 427 16,200 2,640 Climbing FAA TRACON SMA TRACON (SMA)
04:55PM 39.9114 -75.9678 269° West 373 429 17,000 2,160 Climbing FAA TRACON SMA TRACON (SMA)
04:55PM 39.9106 -76.0094 269° West 375 432 17,700 1,680 Climbing FAA TRACON SMA TRACON (SMA)
04:55PM 39.9097 -76.0519 269° West 378 435 18,100 600 Climbing FAA TRACON SMA TRACON (SMA)
04:56PM 39.9097 -76.0519 303° West 378 435 18,100 1,560 Level FAA TRACON SMA TRACON (SMA)
04:57PM 39.9139 -76.3272 271° West 409 471 21,100 1,800 Climbing New York Center
04:58PM 39.9194 -76.4739 273° West 409 471 22,900 1,380 Climbing New York Center
04:59PM 39.9247 -76.6206 273° West 414 476 24,000 540 Climbing New York Center
05:00PM 39.9383 -76.7653 277° West 408 470 24,000 420 Level New York Center
05:01PM 39.9642 -76.9083 283° West 402 463 24,900 960 Climbing New York Center
05:02PM 39.9903 -77.0461 284° West 402 463 26,000 540 Climbing New York Center
05:03PM 40.0183 -77.1869 285° West 402 463 26,000  Level New York Center
05:04PM 40.0417 -77.3275 282° West 402 463 26,000  Level New York Center
05:05PM 40.0672 -77.4708 283° West 402 463 26,000  Level New York Center
05:06PM 40.1000 -77.6408 284° West 405 466 26,000  Level Cleveland Center
05:07PM 40.1222 -77.7728 282° West 411 473 26,000  Level Cleveland Center
05:08PM 40.1344 -77.9408 275° West 402 463 26,000  Level Cleveland Center
05:09PM 40.1358 -78.0900 271° West 402 463 26,000  Level Cleveland Center
05:10PM 40.1367 -78.2367 270° West 402 463 26,000  Level Cleveland Center
05:11PM 40.1397 -78.3861 272° West 402 463 26,000  Level Cleveland Center
05:12PM 40.1383 -78.5328 269° West 402 463 26,000  Level Cleveland Center
05:13PM 40.1408 -78.6792 271° West 402 463 26,000  Level Cleveland Center
05:14PM 40.1433 -78.8286 271° West 402 463 26,000  Level Cleveland Center
05:15PM 40.1517 -78.9778 274° West 402 463 26,000  Level Cleveland Center
05:16PM 40.1911 -79.1181 290° West 402 463 26,000  Level Cleveland Center
05:17PM 40.2325 -79.2586 291° West 413 475 26,000  Level Cleveland Center
05:18PM 40.2756 -79.3858 294° West 419 482 26,000  Level Cleveland Center
05:19PM 40.3167 -79.5239 291° West 424 488 26,000 -660 Level Cleveland Center
05:20PM 40.3594 -79.6622 292° West 419 482 24,700 -1,020 Descending Cleveland Center
05:21PM 40.4000 -79.8006 291° West 413 475 24,000 -360 Descending Cleveland Center
05:22PM 40.4406 -79.9392 291° West 408 470 24,000  Level Cleveland Center
05:23PM 40.4831 -80.0944 290° West 408 470 24,000  Level Cleveland Center
05:24PM 40.5253 -80.2361 291° West 413 475 24,000  Level Cleveland Center
05:25PM 40.5672 -80.3728 292° West 413 475 24,000  Level Cleveland Center
05:26PM 40.6069 -80.5147 290° West 413 475 24,000  Level Cleveland Center
05:27PM 40.6444 -80.6433 291° West 413 475 24,000  Level Cleveland Center
05:28PM 40.6986 -80.7886 296° West 408 470 24,000  Level Cleveland Center
05:29PM 40.7631 -80.9175 303° West 408 470 24,000  Level Cleveland Center
05:30PM 40.8250 -81.0442 303° West 413 475 24,000  Level Cleveland Center
05:31PM 40.8786 -81.1625 301° West 420 483 24,000  Level Cleveland Center
05:32PM 40.9406 -81.2894 303° West 415 478 24,000  Level Cleveland Center
05:33PM 41.0022 -81.4194 302° West 415 478 24,000  Level Cleveland Center
05:34PM 41.0697 -81.5608 302° West 415 478 24,000  Level Cleveland Center
05:35PM 41.1353 -81.6886 304° West 407 468 24,000  Level Cleveland Center
05:36PM 41.1986 -81.8194 303° West 413 475 24,000  Level Cleveland Center
05:37PM 41.2578 -81.9475 302° West 413 475 24,000  Level Cleveland Center
05:38PM 41.3206 -82.0789 302° West 413 475 24,000 -60 Level Cleveland Center
05:39PM 41.3775 -82.1964 303° West 413 475 23,900 -900 Descending Cleveland Center
05:40PM 41.4467 -82.3117 309° West 413 475 22,300 -2,160 Descending Cleveland Center
05:41PM 41.5178 -82.4328 308° West 407 468 19,600 -2,820 Descending Cleveland Center
05:42PM 41.5542 -82.4950 308° West 393 452 18,200 -2,100 Descending Cleveland Center
05:42PM 41.5825 -82.5375 312° West 387 445 17,500 -2,280 Descending Cleveland Center
05:43PM 41.6475 -82.6478 308° West 356 410 15,000 -2,520 Descending Cleveland Center
05:44PM 41.7000 -82.7411 307° West 341 392 13,000 -1,560 Descending Cleveland Center
05:45PM 41.7669 -82.8325 314° West 343 395 12,000 -480 Descending Cleveland Center
05:46PM 41.8422 -82.9189 319° Northwest 276 318 12,000  Level Cleveland Center
05:47PM 41.8892 -82.9764 318° Northwest 303 349 12,000  Level Cleveland Center
05:48PM 41.9581 -83.0628 317° Northwest 298 343 12,000  Level Cleveland Center
05:49PM 42.0172 -83.1322 319° Northwest 303 349 12,000 -120 Level Cleveland Center
05:50PM 42.0922 -83.2219 318° Northwest 253 291 11,800 -540 Descending Cleveland Center
05:51PM 42.1483 -83.2242 358° North 255 293 11,000 -1,320 Descending Cleveland Center
05:53PM 42.2328 -83.1800 21° North 257 296 9,000 -1,680 Descending Cleveland Center
05:53PM 42.2922 -83.1375 28° Northeast 256 295 7,400 -1,740 Descending Cleveland Center
05:54PM 42.3556 -83.0925 28° Northeast 247 284 5,700 -1,140 Descending Cleveland Center
05:56PM 42.4231 -83.0556 22° Northeast 228 262 5,000 -360 Descending Cleveland Center
05:57PM 42.4492 -83.1128 302° West 186 214 5,000  Level Cleveland Center
05:58PM 42.4269 -83.1711 243° Southwest 181 208 5,000 -240 Level Cleveland Center
05:59PM 42.3864 -83.2144 218° Southwest 184 212 4,600 -780 Descending Cleveland Center
06:00PM 42.3356 -83.2517 208° Southwest 192 221 3,400 -1,080 Descending Cleveland Center
06:00PM 42.2953 -83.2781 206° Southwest 191 220 2,500 -1,080 Descending Cleveland Center